»·PEaware :: UAL671 KPDX-KSFO

UAL671 :: KPDX-KSFO

FLIGHT INFORMATION

Flight Status: Arrived
Operator:
United Airlines
More flights by this operator :: More flights under this callsign
Pilot: Sanjiv S. (4490)
Aircraft: AIRBUS A320
(A320)
More flights by this aircraft type
Origin: KPDX Portland Intl
United States
Destination: KSFO San Francisco Intl
United States
More flights between these airports :: More routes between these airports
Route: +RBL299033 BGGLO BDEGA2
File this flight plan on PilotEdge
Remarks:
Altitude:
(Current/Filed)
35,000ft
Speed:
(Current/Filed)
440kts
Departed: 16-Dec-17 09:54 AM
Arrived: 16-Dec-17 11:22 AM
Distance/Time
Traveled:
478nm/1:28
Distance/Time
To Go:
Arrived

Flight Plot

Page will automatically refresh every two minutes.

Flight plan parsing failed; only flown route is shown


Map Options




Map Legend


Flown Route
Filed Route
Departure Airport
Arrival Airport
Navaid (VOR, NDB)
Fix

Horizontal Profiles

Position Reports

Time Latitude Longitude Heading Altitude Ground
Speed
16-Dec-17 09:23 45.590228 -122.591577 209 38ft 0kts
16-Dec-17 09:24 45.590228 -122.591577 209 38ft 0kts
16-Dec-17 09:25 45.590228 -122.591577 209 38ft 0kts
16-Dec-17 09:26 45.590228 -122.591577 209 38ft 0kts
16-Dec-17 09:27 45.590228 -122.591577 209 38ft 0kts
16-Dec-17 09:28 45.590228 -122.591577 209 38ft 0kts
16-Dec-17 09:29 45.590228 -122.591577 209 38ft 0kts
16-Dec-17 09:30 45.590228 -122.591577 209 38ft 0kts
16-Dec-17 09:31 45.590228 -122.591577 209 38ft 0kts
16-Dec-17 09:32 45.590228 -122.591577 209 38ft 0kts
16-Dec-17 09:33 45.590228 -122.591577 209 38ft 0kts
16-Dec-17 09:34 45.590228 -122.591577 209 38ft 0kts
16-Dec-17 09:35 45.590228 -122.591577 209 38ft 0kts
16-Dec-17 09:36 45.590228 -122.591577 209 38ft 0kts
16-Dec-17 09:37 45.590228 -122.591577 209 38ft 0kts
16-Dec-17 09:38 45.590228 -122.591577 209 38ft 0kts
16-Dec-17 09:39 45.590228 -122.591577 209 38ft 0kts
16-Dec-17 09:40 45.590228 -122.591577 209 38ft 0kts
16-Dec-17 09:41 45.590228 -122.591577 209 38ft 0kts
16-Dec-17 09:42 45.590228 -122.591577 209 38ft 0kts
16-Dec-17 09:43 45.590228 -122.591577 209 38ft 0kts
16-Dec-17 09:44 45.590228 -122.591577 209 38ft 0kts
16-Dec-17 09:45 45.590228 -122.591577 209 38ft 0kts
16-Dec-17 09:46 45.590228 -122.591577 209 38ft 0kts
16-Dec-17 09:47 45.590228 -122.591577 209 38ft 0kts
16-Dec-17 09:48 45.590228 -122.591577 209 38ft 0kts
16-Dec-17 09:49 45.590228 -122.591577 209 38ft 0kts
16-Dec-17 09:50 45.590228 -122.591577 209 38ft 0kts
16-Dec-17 09:51 45.590238 -122.591569 209 38ft 1kts
16-Dec-17 09:52 45.590597 -122.590991 250 38ft 2kts
16-Dec-17 09:53 45.590593 -122.590200 292 38ft 2kts
16-Dec-17 09:54 45.590536 -122.590038 299 38ft 0kts
16-Dec-17 09:55 45.590540 -122.590046 299 38ft 0kts
16-Dec-17 09:56 45.592861 -122.596067 299 38ft 28kts
16-Dec-17 09:57 45.595705 -122.600759 68 38ft 0kts
16-Dec-17 09:58 45.595704 -122.600760 68 38ft 0kts
16-Dec-17 09:59 45.596015 -122.598725 118 38ft 13kts
16-Dec-17 10:00 45.581658 -122.561175 117 1196ft 188kts
16-Dec-17 10:01 45.566957 -122.478807 103 4083ft 248kts
16-Dec-17 10:02 45.550557 -122.381374 106 6008ft 263kts
16-Dec-17 10:03 45.503068 -122.320959 175 6015ft 253kts
16-Dec-17 10:04 45.434603 -122.325370 216 7086ft 260kts
16-Dec-17 10:05 45.400987 -122.413311 245 10951ft 264kts
16-Dec-17 10:06 45.368662 -122.514061 247 13053ft 315kts
16-Dec-17 10:07 45.333465 -122.623711 247 15718ft 329kts
16-Dec-17 10:08 45.297026 -122.737039 247 18073ft 343kts
16-Dec-17 10:09 45.257921 -122.858580 253 19685ft 376kts
16-Dec-17 10:10 45.195156 -122.973661 207 21768ft 431kts
16-Dec-17 10:11 45.076202 -123.003497 194 23500ft 457kts
16-Dec-17 10:12 44.951468 -123.032026 194 24947ft 477kts
16-Dec-17 10:13 44.826310 -123.060957 194 26377ft 489kts
16-Dec-17 10:14 44.696840 -123.090793 195 27717ft 501kts
16-Dec-17 10:15 44.567573 -123.120457 195 28952ft 510kts
16-Dec-17 10:16 44.437041 -123.133884 182 29981ft 530kts
16-Dec-17 10:17 44.309761 -123.129098 182 30922ft 539kts
16-Dec-17 10:18 44.189975 -123.124815 182 31804ft 545kts
16-Dec-17 10:19 44.062182 -123.120238 183 32908ft 546kts
16-Dec-17 10:20 43.931470 -123.115618 183 33969ft 548kts
16-Dec-17 10:21 43.799731 -123.110984 183 34974ft 546kts
16-Dec-17 10:22 43.653957 -123.105885 183 35471ft 546kts
16-Dec-17 10:23 43.506483 -123.100759 183 35042ft 547kts
16-Dec-17 10:24 43.358665 -123.095641 183 35074ft 548kts
16-Dec-17 10:25 43.210831 -123.090539 183 35079ft 548kts
16-Dec-17 10:26 43.062820 -123.085460 183 35080ft 548kts
16-Dec-17 10:27 42.914263 -123.080385 182 35140ft 547kts
16-Dec-17 10:28 42.774568 -123.075620 182 35366ft 543kts
16-Dec-17 10:29 42.630307 -123.070756 182 35458ft 542kts
16-Dec-17 10:30 42.486150 -123.065905 182 35461ft 542kts
16-Dec-17 10:31 42.338514 -123.061111 182 35475ft 543kts
16-Dec-17 10:32 42.192051 -123.056386 182 35487ft 544kts
16-Dec-17 10:33 42.043782 -123.051629 182 35487ft 544kts
16-Dec-17 10:34 41.898219 -123.046973 182 35458ft 545kts
16-Dec-17 10:35 41.770789 -123.042905 182 35390ft 543kts
16-Dec-17 10:36 41.633336 -123.038545 182 35369ft 542kts
16-Dec-17 10:37 41.490901 -123.034052 182 35376ft 543kts
16-Dec-17 10:38 41.347189 -123.029538 182 35389ft 543kts
16-Dec-17 10:39 41.203842 -123.025176 182 35401ft 544kts
16-Dec-17 10:40 41.059762 -123.020827 181 35368ft 545kts
16-Dec-17 10:41 40.913503 -123.016419 180 35296ft 543kts
16-Dec-17 10:42 40.781562 -123.012459 180 35278ft 541kts
16-Dec-17 10:43 40.643534 -123.008312 180 35253ft 540kts
16-Dec-17 10:44 40.503076 -122.999097 176 35256ft 542kts
16-Dec-17 10:45 40.360459 -122.983261 176 35270ft 542kts
16-Dec-17 10:46 40.223224 -122.968966 177 35277ft 543kts
16-Dec-17 10:47 40.079113 -122.954025 176 35275ft 544kts
16-Dec-17 10:48 39.930674 -122.938729 177 35268ft 544kts
16-Dec-17 10:49 39.792229 -122.924519 176 35245ft 543kts
16-Dec-17 10:50 39.655472 -122.910541 176 35186ft 543kts
16-Dec-17 10:51 39.522421 -122.896995 176 35194ft 543kts
16-Dec-17 10:52 39.386459 -122.883206 176 35203ft 544kts
16-Dec-17 10:53 39.250757 -122.869495 176 34752ft 544kts
16-Dec-17 10:54 39.114101 -122.855742 176 33881ft 545kts
16-Dec-17 10:55 38.977191 -122.842016 176 33054ft 547kts
16-Dec-17 10:56 38.869288 -122.831228 175 31742ft 543kts
16-Dec-17 10:57 38.758650 -122.820191 174 30137ft 534kts
16-Dec-17 10:58 38.637080 -122.808118 174 28330ft 524kts
16-Dec-17 10:59 38.513239 -122.795868 174 26443ft 513kts
16-Dec-17 11:00 38.397608 -122.784475 174 24630ft 503kts
16-Dec-17 11:01 38.279407 -122.772866 173 22685ft 493kts
16-Dec-17 11:02 38.163578 -122.749770 162 20569ft 456kts
16-Dec-17 11:03 38.053891 -122.717895 162 17903ft 430kts
16-Dec-17 11:04 37.949849 -122.687779 162 15664ft 422kts
16-Dec-17 11:05 37.875676 -122.649660 131 14317ft 388kts
16-Dec-17 11:06 37.804973 -122.573436 130 12661ft 375kts
16-Dec-17 11:07 37.730193 -122.494227 130 11045ft 325kts
16-Dec-17 11:08 37.668794 -122.428660 130 11039ft 327kts
16-Dec-17 11:09 37.618571 -122.375436 133 10991ft 327kts
16-Dec-17 11:10 37.552303 -122.336140 154 9862ft 335kts
16-Dec-17 11:11 37.487021 -122.305255 150 8792ft 328kts
16-Dec-17 11:12 37.437847 -122.230925 114 7264ft 296kts
16-Dec-17 11:13 37.414654 -122.182800 114 6579ft 268kts
16-Dec-17 11:14 37.389774 -122.129208 104 5948ft 236kts
16-Dec-17 11:15 37.402963 -122.087504 24 5424ft 154kts
16-Dec-17 11:16 37.428860 -122.070064 349 4798ft 126kts
16-Dec-17 11:17 37.455809 -122.076352 343 4035ft 128kts
16-Dec-17 11:18 37.479721 -122.093429 313 4030ft 130kts
16-Dec-17 11:19 37.498934 -122.121607 314 4032ft 129kts
16-Dec-17 11:20 37.516612 -122.150750 310 3624ft 129kts
16-Dec-17 11:21 37.534240 -122.181058 310 3032ft 128kts
16-Dec-17 11:22 37.549950 -122.212591 299 2385ft 129kts
16-Dec-17 11:23 37.564088 -122.246282 304 1882ft 125kts
16-Dec-17 11:24 37.577040 -122.278709 301 1475ft 124kts
16-Dec-17 11:25 37.590895 -122.310047 307 927ft 123kts
16-Dec-17 11:26 37.604452 -122.341573 304 355ft 121kts
16-Dec-17 11:27 37.617101 -122.370944 297 15ft 83kts
16-Dec-17 11:28 37.619047 -122.377995 253 28ft 0kts
16-Dec-17 11:29 37.619047 -122.377995 253 28ft 0kts
16-Dec-17 11:30 37.618987 -122.378806 280 30ft 13kts
16-Dec-17 11:31 37.620663 -122.382669 294 32ft 10kts
16-Dec-17 11:32 37.619795 -122.383956 214 32ft 2kts

Navigation Log

Ident Type
Flight plan parsing failed, navigation log unavailable